Time;durP1;ratioP1;P1;durP2;ratioP2;P2;SDS_P1;SDS_P2;PMS_P1;PMS_P2;Temp;Humidity;BMP_temperature;BMP_pressure;BME280_temperature;BME280_humidity;BME280_pressure;Samples;Min_cycle;Max_cycle;Signal;HPM_P1;HPM_P2
2021/12/30 00:02:00;;;;;;;0.97;0.77;;;12.20;99.90;;;;;;5005914;28;20481;-86
2021/12/30 00:04:27;;;;;;;0.53;0.53;;;12.20;99.90;;;;;;5016966;28;20460;-85
2021/12/30 00:06:54;;;;;;;0.67;0.67;;;12.20;99.90;;;;;;5014260;28;20454;-84
2021/12/30 00:09:21;;;;;;;0.60;0.60;;;12.20;99.90;;;;;;5010158;28;20461;-84
2021/12/30 00:11:48;;;;;;;0.70;0.70;;;12.30;99.90;;;;;;5018626;28;20488;-85
2021/12/30 00:14:15;;;;;;;2.20;0.80;;;12.20;99.90;;;;;;5012667;28;20947;-84
2021/12/30 00:16:43;;;;;;;0.73;0.67;;;12.20;99.90;;;;;;5010138;28;20484;-84
2021/12/30 00:19:12;;;;;;;1.07;0.70;;;12.20;99.90;;;;;;5008435;28;20461;-84
2021/12/30 00:21:38;;;;;;;0.60;0.60;;;12.20;99.90;;;;;;5008207;28;20884;-83
2021/12/30 00:24:06;;;;;;;1.53;0.50;;;12.10;99.90;;;;;;5010469;28;20453;-83
2021/12/30 00:26:33;;;;;;;0.90;0.60;;;12.20;99.90;;;;;;5011373;28;20453;-84
2021/12/30 00:29:00;;;;;;;2.40;0.70;;;12.20;99.90;;;;;;5009600;28;20460;-83
2021/12/30 00:31:27;;;;;;;2.20;0.70;;;12.20;99.90;;;;;;5008996;28;20492;-84
2021/12/30 00:33:55;;;;;;;0.77;0.70;;;12.20;99.90;;;;;;5012507;28;20449;-84
2021/12/30 00:36:21;;;;;;;0.60;0.60;;;12.20;99.90;;;;;;5014076;28;20479;-83
2021/12/30 00:38:48;;;;;;;0.83;0.83;;;12.30;99.90;;;;;;5011601;28;20441;-83
2021/12/30 00:41:18;;;;;;;2.17;0.70;;;12.20;99.90;;;;;;5012520;28;20476;-84
2021/12/30 00:43:45;;;;;;;0.70;0.70;;;12.20;99.90;;;;;;5010879;28;20539;-83
2021/12/30 00:46:12;;;;;;;0.83;0.70;;;12.20;99.90;;;;;;5015149;28;20453;-83
2021/12/30 00:48:39;;;;;;;1.20;0.70;;;12.20;99.90;;;;;;5012151;28;20459;-84
2021/12/30 00:51:08;;;;;;;1.43;1.00;;;12.30;99.90;;;;;;5009762;28;20977;-84
2021/12/30 00:53:35;;;;;;;0.67;0.67;;;12.30;99.90;;;;;;5016358;28;20451;-84
2021/12/30 00:56:02;;;;;;;2.77;0.77;;;12.30;99.90;;;;;;5015213;28;20493;-84
2021/12/30 00:58:29;;;;;;;0.57;0.57;;;12.20;99.90;;;;;;5010071;28;20451;-84
2021/12/30 01:00:56;;;;;;;2.63;1.20;;;12.20;99.90;;;;;;5012889;28;21016;-84
2021/12/30 01:03:23;;;;;;;1.10;1.00;;;12.20;99.90;;;;;;5011026;28;20462;-83
2021/12/30 01:05:50;;;;;;;1.43;0.80;;;12.20;99.90;;;;;;5011858;28;20910;-83
2021/12/30 01:08:19;;;;;;;0.87;0.87;;;12.20;99.90;;;;;;5017481;28;20834;-84
2021/12/30 01:10:46;;;;;;;1.43;0.83;;;12.20;99.90;;;;;;5019806;28;20976;-84
2021/12/30 01:13:18;;;;;;;1.37;0.73;;;12.10;99.90;;;;;;5021012;28;20463;-84
2021/12/30 01:15:55;;;;;;;1.50;0.90;;;12.10;99.90;;;;;;5017387;28;20456;-84
2021/12/30 01:18:30;;;;;;;1.70;0.70;;;12.10;99.90;;;;;;5010741;28;20444;-84
2021/12/30 01:20:58;;;;;;;1.70;0.60;;;12.10;99.90;;;;;;5011774;28;20473;-84
2021/12/30 01:23:27;;;;;;;0.97;0.97;;;12.10;99.90;;;;;;5008430;28;20460;-84
2021/12/30 01:25:55;;;;;;;2.20;0.80;;;12.00;99.90;;;;;;5014248;28;20453;-84
2021/12/30 01:28:23;;;;;;;1.73;0.80;;;12.10;99.90;;;;;;5014815;28;20510;-84
2021/12/30 01:30:50;;;;;;;1.10;0.90;;;12.10;99.90;;;;;;5013539;28;20477;-84
2021/12/30 01:33:18;;;;;;;0.50;0.47;;;12.10;99.90;;;;;;5008961;28;20496;-84
2021/12/30 01:35:45;;;;;;;1.00;0.80;;;12.10;99.90;;;;;;5011400;28;20791;-84
2021/12/30 01:38:15;;;;;;;0.93;0.70;;;12.10;99.90;;;;;;5016701;28;20457;-84
2021/12/30 01:40:46;;;;;;;2.10;0.80;;;12.20;99.90;;;;;;5018347;28;20475;-84
2021/12/30 01:43:14;;;;;;;0.73;0.73;;;12.20;99.90;;;;;;5008660;28;20444;-84
2021/12/30 01:45:42;;;;;;;1.07;0.50;;;12.30;99.90;;;;;;5015454;28;20934;-84
2021/12/30 01:48:09;;;;;;;0.63;0.63;;;12.30;99.90;;;;;;5009776;28;20461;-84
2021/12/30 01:50:37;;;;;;;0.57;0.57;;;12.20;99.90;;;;;;5009828;28;20477;-84
2021/12/30 01:53:05;;;;;;;0.57;0.57;;;12.30;99.90;;;;;;5010869;28;20449;-84
2021/12/30 01:55:34;;;;;;;0.70;0.70;;;12.40;99.90;;;;;;5013771;28;20460;-84
2021/12/30 01:58:04;;;;;;;0.70;0.70;;;12.30;99.90;;;;;;5009892;28;20484;-84
2021/12/30 02:00:32;;;;;;;1.20;1.00;;;12.30;99.90;;;;;;5008367;28;20481;-84
2021/12/30 02:03:00;;;;;;;1.03;0.90;;;12.40;99.90;;;;;;5011670;28;20454;-84
2021/12/30 02:05:27;;;;;;;3.20;1.27;;;12.40;99.90;;;;;;5010074;28;20456;-84
2021/12/30 02:07:54;;;;;;;1.27;1.17;;;12.50;99.90;;;;;;5015909;28;20442;-84
2021/12/30 02:10:22;;;;;;;3.30;0.90;;;12.50;99.90;;;;;;5014524;28;20998;-84
2021/12/30 02:12:48;;;;;;;0.90;0.90;;;12.40;99.90;;;;;;5009578;28;20453;-84
2021/12/30 02:15:18;;;;;;;0.67;0.67;;;12.40;99.90;;;;;;5011292;28;20461;-84
2021/12/30 02:17:48;;;;;;;0.73;0.73;;;12.30;99.90;;;;;;5011652;28;20472;-84
2021/12/30 02:20:45;;;;;;;2.63;0.80;;;12.10;99.90;;;;;;5012131;28;20507;-84
2021/12/30 02:23:13;;;;;;;2.87;0.90;;;12.10;99.90;;;;;;5009772;28;20444;-84
2021/12/30 02:25:40;;;;;;;2.40;0.80;;;12.00;99.90;;;;;;5010324;28;20466;-84
2021/12/30 02:28:08;;;;;;;0.90;0.90;;;11.90;99.90;;;;;;5009510;28;20441;-84
2021/12/30 02:30:36;;;;;;;1.37;0.80;;;12.00;99.90;;;;;;5006929;28;20480;-84
2021/12/30 02:33:03;;;;;;;1.37;0.93;;;12.10;99.90;;;;;;5004329;28;20448;-84
2021/12/30 02:35:31;;;;;;;0.80;0.67;;;12.10;99.90;;;;;;5005540;28;20460;-84
2021/12/30 02:37:59;;;;;;;1.00;0.90;;;12.20;99.90;;;;;;5004674;28;21069;-85
2021/12/30 02:40:26;;;;;;;1.00;0.90;;;12.20;99.90;;;;;;5005737;28;20492;-84
2021/12/30 02:42:53;;;;;;;2.37;1.10;;;12.20;99.90;;;;;;5002872;28;20943;-85
2021/12/30 02:45:21;;;;;;;0.80;0.80;;;12.10;99.90;;;;;;4998137;28;20457;-84
2021/12/30 02:47:47;;;;;;;2.77;0.83;;;12.10;99.90;;;;;;5012908;28;20865;-84
2021/12/30 02:50:14;;;;;;;0.60;0.60;;;12.10;99.90;;;;;;5012519;28;20479;-84
2021/12/30 02:52:43;;;;;;;2.17;1.27;;;12.10;99.90;;;;;;5012981;28;20950;-85
2021/12/30 02:55:10;;;;;;;0.70;0.70;;;12.10;99.90;;;;;;5012828;28;20561;-84
2021/12/30 02:57:37;;;;;;;1.80;0.90;;;12.10;99.90;;;;;;5012905;28;20520;-83
2021/12/30 03:00:06;;;;;;;1.17;1.10;;;12.00;99.90;;;;;;5026717;28;20479;-84
2021/12/30 03:02:36;;;;;;;2.20;0.70;;;12.00;99.90;;;;;;5014722;28;20458;-84
2021/12/30 03:05:03;;;;;;;1.27;0.77;;;12.00;99.90;;;;;;5013600;28;20458;-84
2021/12/30 03:07:30;;;;;;;1.60;1.00;;;12.10;99.90;;;;;;5016338;28;20985;-84
2021/12/30 03:09:58;;;;;;;0.80;0.80;;;12.10;99.90;;;;;;5012762;28;20962;-85
2021/12/30 03:12:25;;;;;;;2.00;0.90;;;12.20;99.90;;;;;;5012463;28;20453;-84
2021/12/30 03:14:53;;;;;;;1.00;0.77;;;12.20;99.90;;;;;;5012676;28;20487;-84
2021/12/30 03:17:20;;;;;;;5.90;1.30;;;12.20;99.90;;;;;;5012647;28;20543;-85
2021/12/30 03:19:47;;;;;;;1.03;0.93;;;12.20;99.90;;;;;;5012240;28;20450;-84
2021/12/30 03:22:13;;;;;;;0.70;0.67;;;12.30;99.90;;;;;;5017258;28;20463;-84
2021/12/30 03:24:40;;;;;;;0.90;0.70;;;12.30;99.90;;;;;;5018116;28;20445;-84
2021/12/30 03:27:08;;;;;;;0.93;0.90;;;12.40;99.90;;;;;;5017740;28;20460;-84
2021/12/30 03:29:36;;;;;;;1.13;1.07;;;12.40;99.90;;;;;;5017899;28;20461;-84
2021/12/30 03:32:04;;;;;;;0.70;0.70;;;12.30;99.90;;;;;;5017034;28;20468;-84
2021/12/30 03:34:30;;;;;;;0.80;0.80;;;12.50;99.90;;;;;;5017799;28;20583;-84
2021/12/30 03:36:57;;;;;;;0.73;0.73;;;12.60;99.90;;;;;;5017827;28;20492;-84
2021/12/30 03:39:24;;;;;;;0.70;0.70;;;12.60;99.90;;;;;;5018572;28;20467;-84
2021/12/30 03:41:51;;;;;;;1.53;1.43;;;12.60;99.90;;;;;;5017551;28;20860;-84
2021/12/30 03:44:19;;;;;;;1.10;1.00;;;12.50;99.90;;;;;;5017698;28;20464;-84
2021/12/30 03:46:45;;;;;;;2.30;0.80;;;12.50;99.90;;;;;;5014485;28;20557;-83
2021/12/30 03:49:12;;;;;;;1.00;0.80;;;12.50;99.90;;;;;;5013050;28;20457;-83
2021/12/30 03:51:40;;;;;;;1.27;0.80;;;12.60;99.90;;;;;;5012160;28;20477;-83
2021/12/30 03:54:08;;;;;;;1.13;0.67;;;12.60;99.90;;;;;;5012637;28;20507;-83
2021/12/30 03:56:36;;;;;;;1.07;1.00;;;12.50;99.90;;;;;;5012187;28;20454;-83
2021/12/30 03:59:04;;;;;;;1.10;0.80;;;12.50;99.90;;;;;;5012814;28;20492;-82
2021/12/30 04:01:32;;;;;;;0.90;0.60;;;12.30;99.90;;;;;;5011865;28;20512;-83
2021/12/30 04:04:00;;;;;;;2.03;0.90;;;12.20;99.90;;;;;;5012706;28;20456;-83
2021/12/30 04:06:28;;;;;;;1.07;0.97;;;12.10;99.90;;;;;;5014782;28;20480;-83
2021/12/30 04:08:55;;;;;;;1.90;1.03;;;12.10;99.90;;;;;;5016954;28;20453;-83
2021/12/30 04:11:24;;;;;;;1.17;0.90;;;12.10;99.90;;;;;;5016507;28;20485;-83
2021/12/30 04:13:53;;;;;;;0.82;0.82;;;12.10;99.90;;;;;;5016488;28;20514;-83
2021/12/30 04:16:21;;;;;;;0.90;0.90;;;12.10;99.90;;;;;;5016500;28;20209;-83
2021/12/30 04:18:50;;;;;;;1.13;0.80;;;12.10;99.90;;;;;;5016787;28;20847;-83
2021/12/30 04:21:18;;;;;;;1.20;0.87;;;12.20;99.90;;;;;;5015617;28;20848;-83
2021/12/30 04:23:45;;;;;;;0.83;0.83;;;12.30;99.90;;;;;;5016171;28;20462;-83
2021/12/30 04:26:13;;;;;;;1.57;1.10;;;12.40;99.90;;;;;;5015958;28;20448;-83
2021/12/30 04:28:40;;;;;;;1.17;1.07;;;12.30;99.90;;;;;;5016218;28;20464;-83
2021/12/30 04:31:07;;;;;;;1.20;1.10;;;12.30;99.90;;;;;;5015432;28;20487;-83
2021/12/30 04:33:34;;;;;;;2.10;1.53;;;12.40;99.90;;;;;;5016034;28;20947;-83
2021/12/30 04:36:02;;;;;;;1.13;0.70;;;12.40;99.90;;;;;;5015740;28;20456;-83
2021/12/30 04:38:30;;;;;;;0.90;0.87;;;12.20;99.90;;;;;;5015847;28;20493;-83
2021/12/30 04:40:57;;;;;;;1.07;0.67;;;12.30;99.90;;;;;;5015245;28;20503;-83
2021/12/30 04:43:24;;;;;;;0.90;0.67;;;12.30;99.90;;;;;;5016050;28;20448;-83
2021/12/30 04:45:51;;;;;;;0.93;0.80;;;12.40;99.90;;;;;;5015862;28;20821;-83
2021/12/30 04:48:19;;;;;;;1.40;1.03;;;12.50;99.90;;;;;;5016197;28;20455;-83
2021/12/30 04:50:46;;;;;;;1.10;1.00;;;12.40;99.90;;;;;;5017073;28;20484;-83
2021/12/30 04:53:15;;;;;;;0.70;0.70;;;12.50;99.90;;;;;;5017112;28;20457;-83
2021/12/30 04:55:42;;;;;;;0.60;0.60;;;12.50;99.90;;;;;;5016795;28;20463;-83
2021/12/30 04:58:09;;;;;;;0.77;0.77;;;12.50;99.90;;;;;;5017401;28;20495;-83
2021/12/30 05:00:36;;;;;;;0.97;0.97;;;12.40;99.90;;;;;;5016743;28;20477;-83
2021/12/30 05:03:11;;;;;;;2.37;1.00;;;12.40;99.90;;;;;;5016963;28;20457;-83
2021/12/30 05:05:40;;;;;;;1.57;0.90;;;12.30;99.90;;;;;;5017206;28;20461;-83
2021/12/30 05:08:07;;;;;;;0.80;0.80;;;12.30;99.90;;;;;;5016813;28;20464;-83
2021/12/30 05:10:36;;;;;;;1.70;1.23;;;12.30;99.90;;;;;;5017600;28;20468;-82
2021/12/30 05:13:05;;;;;;;2.53;0.80;;;12.20;99.90;;;;;;5017525;28;20463;-83
2021/12/30 05:15:31;;;;;;;1.53;1.10;;;12.30;99.90;;;;;;5019898;28;20468;-84
2021/12/30 05:17:58;;;;;;;1.10;1.00;;;12.30;99.90;;;;;;5020926;28;20485;-84
2021/12/30 05:20:25;;;;;;;1.37;1.20;;;12.40;99.90;;;;;;5020179;28;21020;-84
2021/12/30 05:22:52;;;;;;;0.77;0.77;;;12.40;99.90;;;;;;5021964;28;20445;-85
2021/12/30 05:25:20;;;;;;;0.97;0.70;;;12.40;99.90;;;;;;5020696;28;20460;-83
2021/12/30 05:27:49;;;;;;;0.93;0.93;;;12.40;99.90;;;;;;5020853;28;20457;-85
2021/12/30 05:30:17;;;;;;;0.90;0.90;;;12.30;99.90;;;;;;5000547;28;20517;-84
2021/12/30 05:32:45;;;;;;;0.80;0.80;;;12.30;99.90;;;;;;5001356;28;20434;-85
2021/12/30 05:35:13;;;;;;;0.70;0.70;;;12.40;99.90;;;;;;5002945;28;20462;-84
2021/12/30 05:37:41;;;;;;;2.00;1.10;;;12.30;99.90;;;;;;5020346;28;20485;-84
2021/12/30 05:40:11;;;;;;;0.83;0.83;;;12.30;99.90;;;;;;5020609;28;20476;-85
2021/12/30 05:42:38;;;;;;;1.07;0.50;;;12.20;99.90;;;;;;5020798;28;20465;-84
2021/12/30 05:45:07;;;;;;;0.50;0.50;;;12.20;99.90;;;;;;5020861;28;20459;-84
2021/12/30 05:47:34;;;;;;;0.60;0.60;;;12.20;99.90;;;;;;5020195;28;20445;-86
2021/12/30 05:50:02;;;;;;;1.07;0.53;;;12.20;99.90;;;;;;5020433;28;20539;-85
2021/12/30 05:52:28;;;;;;;0.50;0.50;;;12.20;99.90;;;;;;5021150;28;20595;-85
2021/12/30 05:54:55;;;;;;;0.90;0.90;;;12.20;99.90;;;;;;5020925;28;20453;-85
2021/12/30 05:57:22;;;;;;;0.60;0.60;;;12.20;99.90;;;;;;5020587;28;20461;-86
2021/12/30 05:59:49;;;;;;;1.03;0.67;;;12.20;99.90;;;;;;5020676;28;20457;-86
2021/12/30 06:02:17;;;;;;;1.27;0.80;;;12.20;99.90;;;;;;5020406;28;20453;-85
2021/12/30 06:04:44;;;;;;;0.40;0.40;;;12.30;99.90;;;;;;5021619;28;20445;-85
2021/12/30 06:07:11;;;;;;;0.63;0.63;;;12.20;99.90;;;;;;5020251;28;20824;-86
2021/12/30 06:09:37;;;;;;;0.57;0.57;;;12.20;99.90;;;;;;5020449;28;20452;-84
2021/12/30 06:12:05;;;;;;;0.50;0.50;;;12.30;99.90;;;;;;5021360;28;20464;-85
2021/12/30 06:14:31;;;;;;;0.70;0.70;;;12.20;99.90;;;;;;5021254;28;20460;-85
2021/12/30 06:16:58;;;;;;;0.57;0.57;;;12.20;99.90;;;;;;5015410;28;20457;-83
2021/12/30 06:19:26;;;;;;;0.83;0.50;;;12.20;99.90;;;;;;5013897;28;20493;-84
2021/12/30 06:21:53;;;;;;;0.40;0.40;;;12.20;99.90;;;;;;5013310;28;20481;-84
2021/12/30 06:24:20;;;;;;;0.30;0.30;;;12.30;99.90;;;;;;5013469;28;20453;-85
2021/12/30 06:26:46;;;;;;;0.40;0.40;;;12.20;99.90;;;;;;5013505;28;20453;-84
2021/12/30 06:29:14;;;;;;;0.60;0.60;;;12.20;99.90;;;;;;5013085;28;20453;-84
2021/12/30 06:31:41;;;;;;;1.80;0.80;;;12.20;99.90;;;;;;5013343;28;20496;-85
2021/12/30 06:34:08;;;;;;;1.80;0.50;;;12.20;99.90;;;;;;5013652;28;20457;-85
2021/12/30 06:36:37;;;;;;;0.73;0.43;;;12.30;99.90;;;;;;5013589;28;20527;-84
2021/12/30 06:39:05;;;;;;;1.33;0.60;;;12.20;99.90;;;;;;5013103;28;21022;-84
2021/12/30 06:41:31;;;;;;;0.87;0.87;;;12.20;99.90;;;;;;5016471;28;20564;-86
2021/12/30 06:43:58;;;;;;;1.17;1.17;;;12.20;99.90;;;;;;5019265;28;20463;-85
2021/12/30 06:46:26;;;;;;;0.50;0.50;;;12.30;99.90;;;;;;4999652;28;20464;-84
2021/12/30 06:48:53;;;;;;;0.43;0.37;;;12.10;99.90;;;;;;5010013;28;20516;-84
2021/12/30 06:51:22;;;;;;;0.70;0.70;;;12.20;99.90;;;;;;5019094;28;20918;-84
2021/12/30 06:53:54;;;;;;;0.73;0.60;;;12.20;99.90;;;;;;5018506;28;20560;-84
2021/12/30 06:56:21;;;;;;;0.70;0.60;;;12.20;99.90;;;;;;5019131;28;20455;-84
2021/12/30 06:58:48;;;;;;;1.17;0.60;;;12.20;99.90;;;;;;5017907;28;21002;-84
2021/12/30 07:01:16;;;;;;;1.70;0.50;;;12.10;99.90;;;;;;5018780;28;20587;-84
2021/12/30 07:03:42;;;;;;;1.70;0.90;;;12.20;99.90;;;;;;5018289;28;20459;-84
2021/12/30 07:06:09;;;;;;;0.57;0.57;;;12.20;99.90;;;;;;5018272;28;20461;-84
2021/12/30 07:08:36;;;;;;;0.90;0.90;;;12.10;99.90;;;;;;5018770;28;20483;-84
2021/12/30 07:11:04;;;;;;;0.70;0.70;;;12.10;99.90;;;;;;5018926;28;20477;-84
2021/12/30 07:13:31;;;;;;;1.13;0.93;;;12.00;99.90;;;;;;5018084;28;20488;-84
2021/12/30 07:16:00;;;;;;;0.83;0.83;;;12.00;99.90;;;;;;5019395;28;20469;-84
2021/12/30 07:18:27;;;;;;;2.30;0.90;;;12.00;99.90;;;;;;5018734;28;20480;-84
2021/12/30 07:20:55;;;;;;;1.03;0.60;;;12.00;99.90;;;;;;5018015;28;20539;-84
2021/12/30 07:23:22;;;;;;;1.33;0.83;;;12.10;99.90;;;;;;5014517;28;20552;-84
2021/12/30 07:25:49;;;;;;;0.80;0.80;;;12.10;99.90;;;;;;5014991;28;20453;-84
2021/12/30 07:28:18;;;;;;;1.02;0.93;;;12.10;99.90;;;;;;5014493;28;20455;-84
2021/12/30 07:30:45;;;;;;;0.90;0.80;;;12.10;99.90;;;;;;5015580;28;20238;-84
2021/12/30 07:33:12;;;;;;;0.70;0.70;;;12.10;99.90;;;;;;5016708;28;20447;-84
2021/12/30 07:35:39;;;;;;;0.80;0.80;;;12.10;99.90;;;;;;5016341;28;20488;-84
2021/12/30 07:38:06;;;;;;;2.20;1.00;;;12.10;99.90;;;;;;5015747;28;20487;-83
2021/12/30 07:40:38;;;;;;;0.80;0.80;;;12.10;99.90;;;;;;5024988;28;20523;-83
2021/12/30 07:43:05;;;;;;;0.80;0.80;;;12.10;99.90;;;;;;5028270;28;20448;-84
2021/12/30 07:45:35;;;;;;;1.00;1.00;;;12.10;99.90;;;;;;5026524;28;20465;-84
2021/12/30 07:48:03;;;;;;;0.90;0.90;;;12.10;99.90;;;;;;5027597;28;20987;-84
2021/12/30 07:50:32;;;;;;;0.93;0.70;;;12.20;99.90;;;;;;5028413;28;20477;-84
2021/12/30 07:53:03;;;;;;;1.17;1.07;;;12.10;99.90;;;;;;5025033;28;20460;-85
2021/12/30 07:55:32;;;;;;;1.33;0.80;;;12.20;99.90;;;;;;5021359;28;20563;-86
2021/12/30 07:57:58;;;;;;;1.90;1.30;;;12.20;99.90;;;;;;5021375;28;20466;-85
2021/12/30 08:00:29;;;;;;;1.10;1.10;;;12.30;99.90;;;;;;5024359;28;20476;-86
2021/12/30 08:02:58;;;;;;;1.30;1.20;;;12.20;99.90;;;;;;5023698;28;20507;-86
2021/12/30 08:05:27;;;;;;;3.40;1.03;;;12.30;99.90;;;;;;5023195;28;20456;-86
2021/12/30 08:07:58;;;;;;;1.13;0.83;;;12.30;99.90;;;;;;5020683;28;20543;-86
2021/12/30 08:10:28;;;;;;;1.73;1.63;;;12.30;99.90;;;;;;5020855;28;20909;-86
2021/12/30 08:12:54;;;;;;;1.33;1.23;;;12.20;99.90;;;;;;5021235;28;20212;-86
2021/12/30 08:15:22;;;;;;;0.97;0.90;;;12.30;99.90;;;;;;5020795;28;20464;-86
2021/12/30 08:17:51;;;;;;;1.07;0.90;;;12.40;99.90;;;;;;5020618;28;20501;-86
2021/12/30 08:20:22;;;;;;;1.30;1.20;;;12.40;99.90;;;;;;5015458;28;20485;-86
2021/12/30 08:22:51;;;;;;;0.80;0.80;;;12.40;99.90;;;;;;5016426;28;20456;-86
2021/12/30 08:25:23;;;;;;;1.10;1.10;;;12.40;99.90;;;;;;5018838;28;20520;-87
2021/12/30 08:27:52;;;;;;;1.27;1.00;;;12.50;99.90;;;;;;5018841;28;20516;-86
2021/12/30 08:30:21;;;;;;;1.47;1.27;;;12.50;99.90;;;;;;5018193;28;20480;-86
2021/12/30 08:33:01;;;;;;;0.90;0.90;;;12.50;99.90;;;;;;5018168;28;20490;-86
2021/12/30 08:35:32;;;;;;;1.30;1.20;;;12.50;99.90;;;;;;5014682;28;20464;-86
2021/12/30 08:38:02;;;;;;;1.10;1.10;;;12.60;99.90;;;;;;5017756;28;20464;-85
2021/12/30 08:40:35;;;;;;;1.00;0.90;;;12.60;99.90;;;;;;5017407;28;20484;-86
2021/12/30 08:43:03;;;;;;;1.50;1.23;;;12.60;99.90;;;;;;5017157;28;20454;-87
2021/12/30 08:45:38;;;;;;;2.50;1.30;;;12.70;99.90;;;;;;5019200;28;20445;-85
2021/12/30 08:48:06;;;;;;;0.90;0.90;;;12.70;99.90;;;;;;5018508;28;20461;-86
2021/12/30 08:50:52;;;;;;;0.80;0.80;;;12.80;99.90;;;;;;5018955;28;20477;-87
2021/12/30 08:53:22;;;;;;;1.87;1.23;;;12.70;99.90;;;;;;5017014;28;20458;-85
2021/12/30 08:55:52;;;;;;;1.27;1.17;;;12.60;99.90;;;;;;5011965;28;20465;-87
2021/12/30 08:58:19;;;;;;;2.00;1.30;;;12.60;99.90;;;;;;5014792;28;20449;-86
2021/12/30 09:07:23;;;;;;;0.80;0.80;;;12.60;99.90;;;;;;5016447;28;20541;-86
2021/12/30 09:09:50;;;;;;;1.23;0.80;;;12.80;99.90;;;;;;5021542;28;20461;-87
2021/12/30 09:12:18;;;;;;;0.97;0.97;;;12.80;99.90;;;;;;5006643;28;20458;-86
2021/12/30 09:14:45;;;;;;;0.67;0.67;;;12.80;99.90;;;;;;5007600;28;20872;-87
2021/12/30 09:17:12;;;;;;;1.03;1.03;;;12.90;99.90;;;;;;5021266;28;20453;-84
2021/12/30 09:19:39;;;;;;;0.67;0.67;;;12.90;99.90;;;;;;5024865;28;20994;-86
2021/12/30 09:22:06;;;;;;;1.30;0.90;;;13.00;99.90;;;;;;5026152;28;20454;-86
2021/12/30 09:24:34;;;;;;;0.63;0.63;;;13.10;99.90;;;;;;5013353;28;20503;-86
2021/12/30 09:27:02;;;;;;;1.00;1.00;;;13.20;99.90;;;;;;5014934;28;20449;-86
2021/12/30 09:29:29;;;;;;;0.90;0.90;;;13.30;99.90;;;;;;5018922;28;20453;-86
2021/12/30 09:31:57;;;;;;;1.00;1.00;;;13.50;99.90;;;;;;5013629;28;20482;-86
2021/12/30 09:34:24;;;;;;;2.77;0.93;;;13.70;99.90;;;;;;5018972;28;20496;-86
2021/12/30 09:36:50;;;;;;;0.53;0.53;;;13.70;99.90;;;;;;5015855;28;20443;-86
2021/12/30 09:39:17;;;;;;;2.40;0.83;;;13.80;99.90;;;;;;5015613;28;20552;-86
2021/12/30 09:41:47;;;;;;;1.10;1.10;;;13.90;99.90;;;;;;5016732;28;20835;-85
2021/12/30 09:44:17;;;;;;;0.77;0.77;;;13.90;99.90;;;;;;5019141;28;20457;-85
2021/12/30 09:46:45;;;;;;;0.57;0.57;;;14.00;99.90;;;;;;5019687;28;20442;-87
2021/12/30 09:49:17;;;;;;;0.80;0.50;;;14.00;99.90;;;;;;5020351;28;20447;-84
2021/12/30 09:51:44;;;;;;;0.50;0.47;;;14.00;99.90;;;;;;5019742;28;21074;-84
2021/12/30 09:54:11;;;;;;;0.40;0.40;;;14.20;99.90;;;;;;5019405;28;20455;-85
2021/12/30 09:56:39;;;;;;;0.70;0.70;;;14.20;99.90;;;;;;5019095;28;20450;-85
2021/12/30 09:59:07;;;;;;;0.50;0.50;;;14.20;99.90;;;;;;5020112;28;20490;-84
2021/12/30 10:01:36;;;;;;;0.67;0.67;;;14.20;99.90;;;;;;5018982;28;20524;-87
2021/12/30 10:04:04;;;;;;;0.80;0.50;;;14.20;99.90;;;;;;5018358;28;20487;-85
2021/12/30 10:06:33;;;;;;;0.70;0.53;;;14.20;99.90;;;;;;5018944;28;20450;-85
2021/12/30 10:09:11;;;;;;;0.73;0.50;;;14.40;99.90;;;;;;5012527;28;20454;-84
2021/12/30 10:11:48;;;;;;;0.40;0.40;;;14.40;99.90;;;;;;4997056;28;20475;-84
2021/12/30 10:14:36;;;;;;;2.10;0.60;;;14.30;99.90;;;;;;5003525;28;20444;-88
2021/12/30 10:17:36;;;;;;;0.87;0.70;;;14.40;99.90;;;;;;4999246;28;20466;-86
2021/12/30 10:20:20;;;;;;;0.47;0.47;;;14.40;99.90;;;;;;4998334;28;20490;-86
2021/12/30 10:22:48;;;;;;;0.80;0.63;;;14.40;99.90;;;;;;4998974;28;20543;-84
2021/12/30 10:25:28;;;;;;;0.97;0.60;;;14.30;99.90;;;;;;4998422;28;20500;-86
2021/12/30 10:27:56;;;;;;;0.73;0.63;;;14.30;99.90;;;;;;4995186;28;20474;-86
2021/12/30 10:30:32;;;;;;;0.53;0.53;;;14.30;99.90;;;;;;4994669;28;20829;-86
2021/12/30 10:33:13;;;;;;;1.63;1.53;;;14.30;99.90;;;;;;5001039;28;20446;-87
2021/12/30 10:35:41;;;;;;;1.30;0.73;;;14.40;99.90;;;;;;4999383;28;20447;-87
2021/12/30 10:38:11;;;;;;;0.80;0.80;;;14.50;99.90;;;;;;5003980;28;20534;-87
2021/12/30 10:40:40;;;;;;;0.97;0.90;;;14.60;99.90;;;;;;5000711;28;20854;-85
2021/12/30 10:43:25;;;;;;;0.80;0.70;;;14.80;99.90;;;;;;5002519;28;20472;-86
2021/12/30 10:46:09;;;;;;;0.63;0.63;;;15.10;99.90;;;;;;5008206;28;20442;-86
2021/12/30 10:48:55;;;;;;;0.47;0.47;;;15.40;99.90;;;;;;5011211;28;20465;-84
2021/12/30 10:51:51;;;;;;;0.70;0.70;;;15.50;99.90;;;;;;5010170;28;20992;-85
2021/12/30 10:58:27;;;;;;;0.50;0.50;;;15.80;99.90;;;;;;4985193;28;20434;-85
2021/12/30 11:05:18;;;;;;;0.50;0.47;;;16.40;99.90;;;;;;4896964;29;20996;-84
2021/12/30 11:08:01;;;;;;;0.47;0.47;;;16.90;99.90;;;;;;4960556;28;20461;-84
2021/12/30 11:11:03;;;;;;;;;;;;;;;;;;;;;
2021/12/30 11:14:00;;;;;;;0.80;0.80;;;17.70;99.90;;;;;;4990991;28;20846;-84
2021/12/30 11:17:10;;;;;;;0.60;0.50;;;18.10;99.90;;;;;;5014812;28;20460;-86
2021/12/30 11:20:03;;;;;;;0.57;0.57;;;18.30;99.90;;;;;;4985237;28;20494;-86
2021/12/30 11:22:39;;;;;;;0.70;0.60;;;18.60;99.90;;;;;;5001532;28;21195;-85
2021/12/30 11:25:09;;;;;;;0.97;0.40;;;18.70;99.90;;;;;;5014331;28;20452;-81
2021/12/30 11:27:36;;;;;;;1.07;0.50;;;18.60;99.90;;;;;;5014040;28;20453;-82
2021/12/30 11:30:06;;;;;;;0.63;0.60;;;18.70;99.90;;;;;;5013371;28;21025;-82
2021/12/30 11:32:38;;;;;;;0.40;0.30;;;18.50;99.90;;;;;;5015147;28;20971;-83
2021/12/30 11:38:48;;;;;;;0.43;0.30;;;17.80;99.90;;;;;;5024611;28;20509;-84
2021/12/30 11:41:29;;;;;;;0.50;0.30;;;17.60;99.90;;;;;;5024926;28;20496;-84
2021/12/30 11:43:57;;;;;;;0.40;0.30;;;17.30;99.90;;;;;;5021557;28;20944;-83
2021/12/30 12:24:45;;;;;;;0.40;0.40;;;17.80;99.90;;;;;;4886379;29;20454;-83
2021/12/30 12:27:30;;;;;;;0.40;0.30;;;18.40;99.90;;;;;;4997111;28;20473;-86
2021/12/30 12:29:59;;;;;;;0.30;0.30;;;19.00;99.90;;;;;;5002664;28;20940;-85
2021/12/30 12:32:37;;;;;;;0.50;0.40;;;19.40;99.90;;;;;;5001258;28;20462;-87
2021/12/30 12:35:06;;;;;;;0.70;0.30;;;19.30;99.90;;;;;;5024019;28;20989;-84
2021/12/30 12:37:51;;;;;;;0.33;0.30;;;19.20;99.90;;;;;;5024238;28;20459;-84
2021/12/30 12:40:36;;;;;;;0.30;0.30;;;19.00;99.90;;;;;;5024400;28;20486;-85
2021/12/30 12:43:12;;;;;;;0.40;0.33;;;18.70;99.90;;;;;;5024243;28;20437;-86
2021/12/30 12:45:44;;;;;;;0.30;0.20;;;18.50;99.90;;;;;;5024515;28;20475;-85
2021/12/30 12:48:22;;;;;;;0.50;0.40;;;17.90;99.90;;;;;;5025221;28;20441;-87
2021/12/30 12:50:51;;;;;;;0.60;0.60;;;17.40;99.90;;;;;;5024659;28;20480;-84
2021/12/30 12:53:36;;;;;;;0.40;0.30;;;16.80;99.90;;;;;;5024352;28;20455;-85
2021/12/30 12:56:08;;;;;;;0.43;0.30;;;16.40;99.90;;;;;;5024503;28;20892;-85
2021/12/30 12:58:40;;;;;;;0.40;0.30;;;16.20;99.90;;;;;;5027800;28;20513;-89
2021/12/30 13:01:08;;;;;;;0.50;0.40;;;16.20;99.90;;;;;;5030743;28;20485;-87
2021/12/30 13:03:36;;;;;;;0.40;0.27;;;15.90;99.90;;;;;;5025738;28;20450;-84
2021/12/30 13:06:06;;;;;;;0.30;0.30;;;16.10;99.90;;;;;;5026441;28;20461;-85
2021/12/30 13:08:35;;;;;;;0.40;0.40;;;16.10;99.90;;;;;;5024578;28;20445;-87
2021/12/30 13:11:03;;;;;;;0.50;0.30;;;16.00;99.90;;;;;;5024307;28;20823;-85
2021/12/30 13:13:35;;;;;;;0.30;0.20;;;16.00;99.90;;;;;;5025104;28;20801;-87
2021/12/30 13:16:06;;;;;;;0.40;0.30;;;15.90;99.90;;;;;;5024074;28;20438;-84
2021/12/30 13:18:34;;;;;;;0.60;0.30;;;15.90;99.90;;;;;;5024356;28;20435;-86
2021/12/30 13:21:13;;;;;;;0.40;0.40;;;15.70;99.90;;;;;;5024462;28;20490;-85
2021/12/30 13:23:40;;;;;;;0.40;0.37;;;15.70;99.90;;;;;;5024393;28;20438;-86
2021/12/30 13:26:09;;;;;;;0.40;0.40;;;15.70;99.90;;;;;;5023887;28;20454;-86
2021/12/30 13:28:47;;;;;;;0.40;0.40;;;15.70;99.90;;;;;;5024465;28;20458;-85
2021/12/30 13:31:16;;;;;;;0.50;0.50;;;15.60;99.90;;;;;;5024026;28;20477;-85
2021/12/30 13:33:53;;;;;;;2.73;0.40;;;15.70;99.90;;;;;;5023566;28;20845;-85
2021/12/30 13:36:21;;;;;;;0.50;0.40;;;15.80;99.90;;;;;;5018158;28;20447;-85
2021/12/30 13:38:48;;;;;;;0.50;0.30;;;15.90;99.90;;;;;;5015910;28;20831;-86
2021/12/30 13:41:17;;;;;;;0.40;0.40;;;15.80;99.90;;;;;;5016802;28;20990;-85
2021/12/30 13:43:46;;;;;;;0.50;0.33;;;15.70;99.90;;;;;;5016726;28;20454;-85
2021/12/30 13:46:14;;;;;;;0.80;0.70;;;15.80;99.90;;;;;;5015740;28;20477;-85
2021/12/30 13:48:44;;;;;;;0.70;0.53;;;15.80;99.90;;;;;;5015969;28;20450;-85
2021/12/30 13:51:16;;;;;;;0.80;0.60;;;15.70;99.90;;;;;;5015957;28;20468;-85
2021/12/30 13:53:46;;;;;;;0.40;0.40;;;15.60;99.90;;;;;;5016053;28;20481;-85
2021/12/30 13:56:19;;;;;;;0.63;0.60;;;15.60;99.90;;;;;;5016085;28;20461;-85
2021/12/30 13:58:47;;;;;;;0.70;0.70;;;15.70;99.90;;;;;;5016481;28;20438;-85